Time;durP1;ratioP1;P1;durP2;ratioP2;P2;SDS_P1;SDS_P2;PMS_P1;PMS_P2;Temp;Humidity;BMP_temperature;BMP_pressure;BME280_temperature;BME280_humidity;BME280_pressure;Samples;Min_cycle;Max_cycle;Signal;HPM_P1;HPM_P2
2023/07/02 00:00:13;;;;;;;;;;;;;;;;;;5050027;28;1851;-50
2023/07/02 00:02:40;;;;;;;;;;;;;;;;;;5049568;28;1887;-49
2023/07/02 00:05:07;;;;;;;;;;;;;;;;;;5049316;28;1727;-51
2023/07/02 00:07:36;;;;;;;;;;;;;;;;;;5049606;28;1630;-55
2023/07/02 00:10:04;;;;;;;;;;;;;;;;;;5048953;28;1665;-53
2023/07/02 00:12:31;;;;;;;;;;;;;;;;;;5049173;28;1910;-47
2023/07/02 00:15:00;;;;;;;;;;;;;;;;;;5049661;28;1792;-50
2023/07/02 00:17:27;;;;;;;;;;;;;;;;;;5050245;28;1634;-47
2023/07/02 00:19:55;;;;;;;;;;;;;;;;;;5049070;28;1869;-50
2023/07/02 00:22:22;;;;;;;;;;;;;;;;;;5049640;28;1856;-48
2023/07/02 00:24:51;;;;;;;;;;;;;;;;;;5049508;28;2010;-47
2023/07/02 00:27:18;;;;;;;;;;;;;;;;;;5048653;28;1950;-48
2023/07/02 00:29:46;;;;;;;;;;;;;;;;;;5052074;28;1826;-50
2023/07/02 00:32:13;;;;;;;;;;;;;;;;;;5046418;28;1987;-45
2023/07/02 00:34:40;;;;;;;;;;;;;;;;;;5048952;28;1914;-49
2023/07/02 00:37:08;;;;;;;;;;;;;;;;;;5047779;28;1796;-50
2023/07/02 00:39:35;;;;;;;;;;;;;;;;;;5048859;28;1819;-48
2023/07/02 00:42:04;;;;;;;;;;;;;;;;;;5048822;28;1989;-52
2023/07/02 00:44:31;;;;;;;;;;;;;;;;;;5048876;28;1821;-53
2023/07/02 00:46:58;;;;;;;;;;;;;;;;;;5048582;28;1654;-45
2023/07/02 00:49:26;;;;;;;;;;;;;;;;;;5047380;28;1821;-46
2023/07/02 00:51:53;;;;;;;;;;;;;;;;;;5048658;28;2045;-50
2023/07/02 00:54:20;;;;;;;;;;;;;;;;;;5048938;28;1910;-48
2023/07/02 00:56:48;;;;;;;;;;;;;;;;;;5047322;28;1713;-47
2023/07/02 00:59:15;;;;;;;;;;;;;;;;;;5049056;28;1927;-47
2023/07/02 01:01:42;;;;;;;;;;;;;;;;;;5047784;28;2026;-49
2023/07/02 01:04:12;;;;;;;;;;;;;;;;;;5046926;28;2110;-49
2023/07/02 01:06:43;;;;;;;;;;;;;;;;;;5048074;28;1809;-48
2023/07/02 01:09:10;;;;;;;;;;;;;;;;;;5048047;28;1998;-48
2023/07/02 01:11:39;;;;;;;;;;;;;;;;;;5048278;28;2481;-47
2023/07/02 01:14:14;;;;;;;;;;;;;;;;;;5061884;28;2518;-47
2023/07/02 01:16:43;;;;;;;;;;;;;;;;;;5048607;28;1894;-49
2023/07/02 01:19:21;;;;;;;;;;;;;;;;;;5046628;28;2091;-52
2023/07/02 01:21:49;;;;;;;;;;;;;;;;;;5047383;28;1839;-50
2023/07/02 01:24:17;;;;;;;;;;;;;;;;;;5048243;28;2067;-47
2023/07/02 01:26:45;;;;;;;;;;;;;;;;;;5047959;28;2361;-50
2023/07/02 01:29:16;;;;;;;;;;;;;;;;;;5048411;28;2012;-49
2023/07/02 01:31:43;;;;;;;;;;;;;;;;;;5048753;28;2294;-48
2023/07/02 01:34:11;;;;;;;;;;;;;;;;;;5045408;28;1910;-47
2023/07/02 01:36:38;;;;;;;;;;;;;;;;;;5048019;28;1939;-49
2023/07/02 01:39:06;;;;;;;;;;;;;;;;;;5046619;28;1950;-58
2023/07/02 01:41:49;;;;;;;;;;;;;;;;;;5047961;28;2059;-55
2023/07/02 01:44:17;;;;;;;;;;;;;;;;;;5047116;28;2100;-45
2023/07/02 01:46:48;;;;;;;;;;;;;;;;;;5048308;28;2332;-52
2023/07/02 01:49:16;;;;;;;;;;;;;;;;;;5047332;28;1976;-49
2023/07/02 01:51:50;;;;;;;;;;;;;;;;;;5048437;28;1940;-47
2023/07/02 01:54:18;;;;;;;;;;;;;;;;;;5047559;28;1972;-49
2023/07/02 01:56:45;;;;;;;;;;;;;;;;;;5047991;28;1907;-48
2023/07/02 01:59:12;;;;;;;;;;;;;;;;;;5050032;28;1904;-46
2023/07/02 02:01:42;;;;;;;;;;;;;;;;;;5046577;28;1981;-47
2023/07/02 02:04:10;;;;;;;;;;;;;;;;;;5047414;28;1982;-50
2023/07/02 02:06:38;;;;;;;;;;;;;;;;;;5047606;28;2028;-50
2023/07/02 02:09:06;;;;;;;;;;;;;;;;;;5047744;28;2164;-47
2023/07/02 02:11:34;;;;;;;;;;;;;;;;;;5047679;28;1953;-49
2023/07/02 02:14:02;;;;;;;;;;;;;;;;;;5047366;28;2079;-50
2023/07/02 02:16:29;;;;;;;;;;;;;;;;;;5046516;28;2317;-51
2023/07/02 02:18:56;;;;;;;;;;;;;;;;;;5047176;28;2058;-47
2023/07/02 02:21:23;;;;;;;;;;;;;;;;;;5051978;28;1927;-48
2023/07/02 02:23:51;;;;;;;;;;;;;;;;;;5051881;28;2101;-48
2023/07/02 02:26:18;;;;;;;;;;;;;;;;;;5051329;28;2324;-49
2023/07/02 02:28:45;;;;;;;;;;;;;;;;;;5052010;28;1996;-48
2023/07/02 02:31:12;;;;;;;;;;;;;;;;;;5050513;28;2127;-47
2023/07/02 02:33:40;;;;;;;;;;;;;;;;;;5051283;28;1989;-48
2023/07/02 02:36:07;;;;;;;;;;;;;;;;;;5050267;28;2640;-48
2023/07/02 02:38:37;;;;;;;;;;;;;;;;;;5049386;28;1663;-50
2023/07/02 02:41:05;;;;;;;;;;;;;;;;;;5051607;28;2025;-48
2023/07/02 02:43:35;;;;;;;;;;;;;;;;;;5050266;28;2028;-54
2023/07/02 02:46:04;;;;;;;;;;;;;;;;;;5053187;28;1799;-48
2023/07/02 02:48:31;;;;;;;;;;;;;;;;;;5053991;28;2263;-48
2023/07/02 02:50:59;;;;;;;;;;;;;;;;;;5051455;28;2474;-49
2023/07/02 02:53:26;;;;;;;;;;;;;;;;;;5050917;28;2065;-47
2023/07/02 02:55:53;;;;;;;;;;;;;;;;;;5051419;28;2114;-46
2023/07/02 02:58:22;;;;;;;;;;;;;;;;;;5054747;28;1922;-52
2023/07/02 03:00:51;;;;;;;;;;;;;;;;;;5050850;28;2168;-54
2023/07/02 03:03:20;;;;;;;;;;;;;;;;;;5053416;28;1938;-51
2023/07/02 03:05:48;;;;;;;;;;;;;;;;;;5049787;28;2058;-48
2023/07/02 03:08:15;;;;;;;;;;;;;;;;;;5051060;28;2061;-48
2023/07/02 03:10:42;;;;;;;;;;;;;;;;;;5050794;28;1978;-51
2023/07/02 03:13:10;;;;;;;;;;;;;;;;;;5050294;28;1972;-47
2023/07/02 03:15:37;;;;;;;;;;;;;;;;;;5048855;28;1972;-51
2023/07/02 03:18:04;;;;;;;;;;;;;;;;;;5050422;28;2063;-48
2023/07/02 03:20:31;;;;;;;;;;;;;;;;;;5050973;28;2305;-49
2023/07/02 03:22:59;;;;;;;;;;;;;;;;;;5050931;28;2304;-58
2023/07/02 03:25:29;;;;;;;;;;;;;;;;;;5047584;28;1767;-59
2023/07/02 03:27:56;;;;;;;;;;;;;;;;;;5050361;28;1666;-59
2023/07/02 03:30:24;;;;;;;;;;;;;;;;;;5050365;28;2078;-58
2023/07/02 03:32:51;;;;;;;;;;;;;;;;;;5049422;28;1912;-59
2023/07/02 03:35:18;;;;;;;;;;;;;;;;;;5050015;28;2124;-55
2023/07/02 03:37:46;;;;;;;;;;;;;;;;;;5050691;28;2024;-59
2023/07/02 03:40:15;;;;;;;;;;;;;;;;;;5049948;28;1974;-58
2023/07/02 03:42:43;;;;;;;;;;;;;;;;;;5050394;28;2191;-58
2023/07/02 03:45:11;;;;;;;;;;;;;;;;;;5049667;28;1998;-58
2023/07/02 03:47:38;;;;;;;;;;;;;;;;;;5049937;28;2156;-57
2023/07/02 03:50:05;;;;;;;;;;;;;;;;;;5047619;28;2396;-58
2023/07/02 03:52:34;;;;;;;;;;;;;;;;;;5050597;28;2400;-54
2023/07/02 03:55:02;;;;;;;;;;;;;;;;;;5049536;28;1910;-58
2023/07/02 03:57:30;;;;;;;;;;;;;;;;;;5048595;28;2039;-58
2023/07/02 03:59:57;;;;;;;;;;;;;;;;;;5049698;28;2150;-54
2023/07/02 04:02:24;;;;;;;;;;;;;;;;;;5049541;28;1968;-58
2023/07/02 04:04:52;;;;;;;;;;;;;;;;;;5049823;28;2255;-59
2023/07/02 04:07:19;;;;;;;;;;;;;;;;;;5049710;28;2019;-59
2023/07/02 04:09:46;;;;;;;;;;;;;;;;;;5049517;28;2045;-58
2023/07/02 04:12:14;;;;;;;;;;;;;;;;;;5049657;28;1731;-58
2023/07/02 04:14:42;;;;;;;;;;;;;;;;;;5056522;28;1969;-59
2023/07/02 04:17:10;;;;;;;;;;;;;;;;;;5049445;28;2319;-59
2023/07/02 04:19:37;;;;;;;;;;;;;;;;;;5049437;28;1928;-58
2023/07/02 04:22:04;;;;;;;;;;;;;;;;;;5049244;28;2195;-57
2023/07/02 04:24:31;;;;;;;;;;;;;;;;;;5049268;28;2010;-58
2023/07/02 04:26:59;;;;;;;;;;;;;;;;;;5049453;28;2239;-57
2023/07/02 04:29:47;;;;;;;;;;;;;;;;;;5048943;28;1992;-48
2023/07/02 04:32:14;;;;;;;;;;;;;;;;;;5048641;28;1990;-51
2023/07/02 04:34:41;;;;;;;;;;;;;;;;;;5049599;28;2294;-59
2023/07/02 04:37:11;;;;;;;;;;;;;;;;;;5049003;28;2261;-58
2023/07/02 04:39:38;;;;;;;;;;;;;;;;;;5047788;28;2302;-56
2023/07/02 04:42:05;;;;;;;;;;;;;;;;;;5048926;28;2289;-58
2023/07/02 04:44:32;;;;;;;;;;;;;;;;;;5048796;28;2040;-58
2023/07/02 04:47:00;;;;;;;;;;;;;;;;;;5047477;28;2234;-57
2023/07/02 04:49:28;;;;;;;;;;;;;;;;;;5048931;28;2049;-58
2023/07/02 04:51:55;;;;;;;;;;;;;;;;;;5048934;28;2086;-58
2023/07/02 04:54:22;;;;;;;;;;;;;;;;;;5047591;28;1971;-58
2023/07/02 04:56:50;;;;;;;;;;;;;;;;;;5048690;28;1808;-58
2023/07/02 04:59:19;;;;;;;;;;;;;;;;;;5048307;28;2178;-57
2023/07/02 05:01:47;;;;;;;;;;;;;;;;;;5048957;28;2140;-58
2023/07/02 05:04:14;;;;;;;;;;;;;;;;;;5048488;28;1941;-58
2023/07/02 05:06:41;;;;;;;;;;;;;;;;;;5049037;28;2116;-58
2023/07/02 05:09:09;;;;;;;;;;;;;;;;;;5048112;28;1957;-58
2023/07/02 05:11:36;;;;;;;;;;;;;;;;;;5048562;28;2085;-58
2023/07/02 05:14:03;;;;;;;;;;;;;;;;;;5048221;28;1957;-57
2023/07/02 05:16:30;;;;;;;;;;;;;;;;;;5047834;28;1975;-58
2023/07/02 05:18:58;;;;;;;;;;;;;;;;;;5047508;28;1940;-56
2023/07/02 05:21:26;;;;;;;;;;;;;;;;;;5048174;28;1884;-58
2023/07/02 05:23:53;;;;;;;;;;;;;;;;;;5047408;28;1997;-57
2023/07/02 05:26:20;;;;;;;;;;;;;;;;;;5048453;28;1885;-58
2023/07/02 05:28:48;;;;;;;;;;;;;;;;;;5048291;28;1715;-53
2023/07/02 05:31:15;;;;;;;;;;;;;;;;;;5047911;28;2183;-58
2023/07/02 05:33:43;;;;;;;;;;;;;;;;;;5048457;28;1985;-58
2023/07/02 05:36:10;;;;;;;;;;;;;;;;;;5046547;28;2087;-57
2023/07/02 05:38:37;;;;;;;;;;;;;;;;;;5047887;28;1796;-58
2023/07/02 05:41:04;;;;;;;;;;;;;;;;;;5048002;28;2102;-58
2023/07/02 05:43:31;;;;;;;;;;;;;;;;;;5048183;28;2159;-58
2023/07/02 05:46:02;;;;;;;;;;;;;;;;;;5046770;28;2012;-58
2023/07/02 05:48:29;;;;;;;;;;;;;;;;;;5047859;28;2049;-58
2023/07/02 05:50:56;;;;;;;;;;;;;;;;;;5047819;28;2061;-59
2023/07/02 05:53:24;;;;;;;;;;;;;;;;;;5047559;28;2084;-59
2023/07/02 05:55:51;;;;;;;;;;;;;;;;;;5048106;28;1984;-58
2023/07/02 05:58:21;;;;;;;;;;;;;;;;;;5047539;28;2042;-58
2023/07/02 06:00:55;;;;;;;;;;;;;;;;;;5047102;28;2245;-58
2023/07/02 06:03:22;;;;;;;;;;;;;;;;;;5047598;28;2261;-58
2023/07/02 06:05:49;;;;;;;;;;;;;;;;;;5047988;28;2195;-57
2023/07/02 06:08:17;;;;;;;;;;;;;;;;;;5047533;28;2106;-58
2023/07/02 06:10:46;;;;;;;;;;;;;;;;;;5047711;28;1903;-54
2023/07/02 06:13:14;;;;;;;;;;;;;;;;;;5047922;28;2429;-58
2023/07/02 06:15:41;;;;;;;;;;;;;;;;;;5047420;28;2257;-58
2023/07/02 06:18:08;;;;;;;;;;;;;;;;;;5046522;28;1912;-58
2023/07/02 06:20:36;;;;;;;;;;;;;;;;;;5047833;28;2240;-58
2023/07/02 06:23:03;;;;;;;;;;;;;;;;;;5045535;28;1965;-54
2023/07/02 06:25:30;;;;;;;;;;;;;;;;;;5046862;28;2078;-58
2023/07/02 06:27:58;;;;;;;;;;;;;;;;;;5047584;28;1792;-51
2023/07/02 06:30:25;;;;;;;;;;;;;;;;;;5046870;28;1908;-58
2023/07/02 06:32:53;;;;;;;;;;;;;;;;;;5047760;28;2083;-58
2023/07/02 06:35:21;;;;;;;;;;;;;;;;;;5046721;28;1968;-59
2023/07/02 06:37:48;;;;;;;;;;;;;;;;;;5046303;28;2035;-55
2023/07/02 06:40:16;;;;;;;;;;;;;;;;;;5047779;28;2251;-57
2023/07/02 06:42:43;;;;;;;;;;;;;;;;;;5047530;28;1715;-58
2023/07/02 06:45:10;;;;;;;;;;;;;;;;;;5046357;28;2090;-59
2023/07/02 06:47:37;;;;;;;;;;;;;;;;;;5047081;28;1996;-58
2023/07/02 06:50:05;;;;;;;;;;;;;;;;;;5046767;28;1990;-53
2023/07/02 06:52:32;;;;;;;;;;;;;;;;;;5049380;28;2376;-60
2023/07/02 06:54:59;;;;;;;;;;;;;;;;;;5047008;28;2127;-59
2023/07/02 06:57:26;;;;;;;;;;;;;;;;;;5047327;28;1979;-56
2023/07/02 06:59:59;;;;;;;;;;;;;;;;;;5047021;28;2076;-60
2023/07/02 07:02:27;;;;;;;;;;;;;;;;;;5047160;28;1997;-47
2023/07/02 07:04:54;;;;;;;;;;;;;;;;;;5048576;28;2137;-47
2023/07/02 07:07:22;;;;;;;;;;;;;;;;;;5049459;28;1915;-48
2023/07/02 07:09:49;;;;;;;;;;;;;;;;;;5050800;28;2151;-52
2023/07/02 07:12:16;;;;;;;;;;;;;;;;;;5051096;28;2219;-48
2023/07/02 07:14:45;;;;;;;;;;;;;;;;;;5049519;28;2264;-45
2023/07/02 07:17:12;;;;;;;;;;;;;;;;;;5049869;28;2131;-48
2023/07/02 07:19:39;;;;;;;;;;;;;;;;;;5050308;28;2054;-52
2023/07/02 07:22:06;;;;;;;;;;;;;;;;;;5050099;28;2008;-51
2023/07/02 07:24:34;;;;;;;;;;;;;;;;;;5050879;28;2026;-50
2023/07/02 07:27:04;;;;;;;;;;;;;;;;;;5050670;28;2322;-49
2023/07/02 07:29:31;;;;;;;;;;;;;;;;;;5049867;28;1981;-48
2023/07/02 07:31:58;;;;;;;;;;;;;;;;;;5050440;28;1935;-48
2023/07/02 07:34:26;;;;;;;;;;;;;;;;;;5049313;28;1906;-52
2023/07/02 07:36:55;;;;;;;;;;;;;;;;;;5049704;28;1913;-47
2023/07/02 07:39:22;;;;;;;;;;;;;;;;;;5050167;28;1951;-46
2023/07/02 07:41:49;;;;;;;;;;;;;;;;;;5050057;28;1939;-50
2023/07/02 07:44:16;;;;;;;;;;;;;;;;;;5049962;28;2064;-47
2023/07/02 07:46:44;;;;;;;;;;;;;;;;;;5050727;28;2124;-47
2023/07/02 07:49:12;;;;;;;;;;;;;;;;;;5050071;28;1986;-59
2023/07/02 07:51:40;;;;;;;;;;;;;;;;;;5049382;28;2015;-59
2023/07/02 07:54:07;;;;;;;;;;;;;;;;;;5048971;28;1868;-58
2023/07/02 07:56:37;;;;;;;;;;;;;;;;;;5048974;28;2022;-59
2023/07/02 07:59:04;;;;;;;;;;;;;;;;;;5049854;28;2141;-62
2023/07/02 08:01:32;;;;;;;;;;;;;;;;;;5049589;28;1943;-60
2023/07/02 08:04:00;;;;;;;;;;;;;;;;;;5049377;28;2199;-58
2023/07/02 08:06:28;;;;;;;;;;;;;;;;;;5049685;28;1932;-60
2023/07/02 08:08:55;;;;;;;;;;;;;;;;;;5049697;28;2236;-59
2023/07/02 08:11:22;;;;;;;;;;;;;;;;;;5049632;28;1793;-60
2023/07/02 08:13:49;;;;;;;;;;;;;;;;;;5048111;28;1954;-58
2023/07/02 08:16:19;;;;;;;;;;;;;;;;;;5048474;28;2154;-60
2023/07/02 08:18:46;;;;;;;;;;;;;;;;;;5049749;28;2063;-58
2023/07/02 08:21:13;;;;;;;;;;;;;;;;;;5049373;28;1915;-59
2023/07/02 08:23:43;;;;;;;;;;;;;;;;;;5049858;28;2194;-60
2023/07/02 08:26:11;;;;;;;;;;;;;;;;;;5048599;28;2082;-60
2023/07/02 08:28:38;;;;;;;;;;;;;;;;;;5049016;28;2303;-59
2023/07/02 08:31:06;;;;;;;;;;;;;;;;;;5048549;28;1965;-56
2023/07/02 08:33:33;;;;;;;;;;;;;;;;;;5049571;28;2098;-59
2023/07/02 08:36:01;;;;;;;;;;;;;;;;;;5048259;28;1979;-59
2023/07/02 08:38:28;;;;;;;;;;;;;;;;;;5049760;28;1871;-59
2023/07/02 08:40:55;;;;;;;;;;;;;;;;;;5047888;28;2103;-59
2023/07/02 08:43:24;;;;;;;;;;;;;;;;;;5049277;28;2054;-59
2023/07/02 08:45:52;;;;;;;;;;;;;;;;;;5049308;28;1883;-58
2023/07/02 08:48:24;;;;;;;;;;;;;;;;;;5048791;28;2198;-58
2023/07/02 08:50:51;;;;;;;;;;;;;;;;;;5048558;28;1898;-55
2023/07/02 08:53:25;;;;;;;;;;;;;;;;;;5048896;28;2034;-56
2023/07/02 08:55:52;;;;;;;;;;;;;;;;;;5049052;28;1987;-62
2023/07/02 08:58:19;;;;;;;;;;;;;;;;;;5048373;28;2130;-61
2023/07/02 09:01:13;;;;;;;;;;;;;;;;;;5048985;28;2025;-51
2023/07/02 09:03:41;;;;;;;;;;;;;;;;;;5046392;28;1839;-59
2023/07/02 09:06:09;;;;;;;;;;;;;;;;;;5048477;28;2049;-48
2023/07/02 09:08:36;;;;;;;;;;;;;;;;;;5048708;28;1813;-50
2023/07/02 09:11:07;;;;;;;;;;;;;;;;;;5048582;28;2025;-48
2023/07/02 09:13:46;;;;;;;;;;;;;;;;;;5048232;28;1887;-59
2023/07/02 09:16:24;;;;;;;;;;;;;;;;;;5047924;28;2035;-58
2023/07/02 09:19:04;;;;;;;;;;;;;;;;;;5046928;28;2294;-56
2023/07/02 09:21:45;;;;;;;;;;;;;;;;;;5048526;28;1852;-59
2023/07/02 09:24:13;;;;;;;;;;;;;;;;;;5047492;28;1757;-58
2023/07/02 09:26:44;;;;;;;;;;;;;;;;;;5047999;28;1983;-58
2023/07/02 09:29:12;;;;;;;;;;;;;;;;;;5047513;28;2044;-46
2023/07/02 09:31:46;;;;;;;;;;;;;;;;;;5048693;28;2098;-55
2023/07/02 09:34:36;;;;;;;;;;;;;;;;;;5047625;28;2058;-57
2023/07/02 09:37:07;;;;;;;;;;;;;;;;;;5047992;28;1921;-58
2023/07/02 09:39:35;;;;;;;;;;;;;;;;;;5046881;28;1972;-50
2023/07/02 09:42:05;;;;;;;;;;;;;;;;;;5047860;28;1967;-49
2023/07/02 09:44:33;;;;;;;;;;;;;;;;;;5048098;28;2051;-50
2023/07/02 09:47:02;;;;;;;;;;;;;;;;;;5047744;28;2065;-48
2023/07/02 09:49:33;;;;;;;;;;;;;;;;;;5047789;28;2053;-58
2023/07/02 09:52:01;;;;;;;;;;;;;;;;;;5047433;28;1994;-48
2023/07/02 09:54:28;;;;;;;;;;;;;;;;;;5048286;28;1985;-49
2023/07/02 09:56:57;;;;;;;;;;;;;;;;;;5047372;28;1921;-50
2023/07/02 09:59:24;;;;;;;;;;;;;;;;;;5048132;28;2005;-49
2023/07/02 10:01:52;;;;;;;;;;;;;;;;;;5048068;28;2152;-52
2023/07/02 10:04:20;;;;;;;;;;;;;;;;;;5047243;28;2087;-46
2023/07/02 10:06:48;;;;;;;;;;;;;;;;;;5047986;28;2541;-51
2023/07/02 10:09:16;;;;;;;;;;;;;;;;;;5047671;28;2055;-68
2023/07/02 10:11:44;;;;;;;;;;;;;;;;;;5048472;28;2042;-46
2023/07/02 10:14:11;;;;;;;;;;;;;;;;;;5046534;28;2121;-45
2023/07/02 10:16:54;;;;;;;;;;;;;;;;;;5047625;28;1987;-45
2023/07/02 10:19:22;;;;;;;;;;;;;;;;;;5046790;28;2356;-47
2023/07/02 10:22:02;;;;;;;;;;;;;;;;;;5047750;28;2073;-55
2023/07/02 10:24:30;;;;;;;;;;;;;;;;;;5047400;28;2015;-48
2023/07/02 10:26:58;;;;;;;;;;;;;;;;;;5047934;28;1753;-46
2023/07/02 10:29:26;;;;;;;;;;;;;;;;;;5046818;28;2075;-48
2023/07/02 10:31:55;;;;;;;;;;;;;;;;;;5047943;28;1990;-49
2023/07/02 10:34:33;;;;;;;;;;;;;;;;;;5046590;28;1794;-58
2023/07/02 10:37:01;;;;;;;;;;;;;;;;;;5047047;28;1931;-58
2023/07/02 10:39:29;;;;;;;;;;;;;;;;;;5047867;28;1911;-58
2023/07/02 10:42:10;;;;;;;;;;;;;;;;;;5051537;28;2057;-58
2023/07/02 10:45:06;;;;;;;;;;;;;;;;;;5051600;28;2101;-52
2023/07/02 10:47:38;;;;;;;;;;;;;;;;;;5033788;28;2456;-55
2023/07/02 10:50:16;;;;;;;;;;;;;;;;;;5051275;28;1847;-58
2023/07/02 10:52:43;;;;;;;;;;;;;;;;;;5050049;28;2053;-57
2023/07/02 10:55:10;;;;;;;;;;;;;;;;;;5049856;28;1973;-57
2023/07/02 10:57:37;;;;;;;;;;;;;;;;;;5051105;28;2162;-52
2023/07/02 11:00:07;;;;;;;;;;;;;;;;;;5050798;28;1975;-52
2023/07/02 11:02:35;;;;;;;;;;;;;;;;;;5050933;28;2118;-54
2023/07/02 11:05:03;;;;;;;;;;;;;;;;;;5051286;28;2046;-57
2023/07/02 11:07:30;;;;;;;;;;;;;;;;;;5050535;28;1800;-49
2023/07/02 11:09:58;;;;;;;;;;;;;;;;;;5050824;28;1752;-46
2023/07/02 11:12:28;;;;;;;;;;;;;;;;;;5050640;28;1934;-50
2023/07/02 11:15:06;;;;;;;;;;;;;;;;;;5051026;28;1991;-45
2023/07/02 11:17:33;;;;;;;;;;;;;;;;;;5050336;28;1902;-48
2023/07/02 11:20:01;;;;;;;;;;;;;;;;;;5050582;28;2007;-46
2023/07/02 11:22:35;;;;;;;;;;;;;;;;;;5051184;28;1809;-48
2023/07/02 11:25:13;;;;;;;;;;;;;;;;;;5050020;28;2103;-46
2023/07/02 11:27:40;;;;;;;;;;;;;;;;;;5049530;28;2042;-58
2023/07/02 11:30:08;;;;;;;;;;;;;;;;;;5050384;28;2075;-48
2023/07/02 11:32:48;;;;;;;;;;;;;;;;;;5050171;28;1834;-56
2023/07/02 11:35:16;;;;;;;;;;;;;;;;;;5048621;28;1946;-48
2023/07/02 11:37:43;;;;;;;;;;;;;;;;;;5050679;28;1815;-46
2023/07/02 11:40:11;;;;;;;;;;;;;;;;;;5050023;28;2004;-47
2023/07/02 11:42:38;;;;;;;;;;;;;;;;;;5050567;28;1945;-46
2023/07/02 11:45:05;;;;;;;;;;;;;;;;;;5049686;28;2145;-46
2023/07/02 11:47:33;;;;;;;;;;;;;;;;;;5049438;28;1887;-46
2023/07/02 11:50:03;;;;;;;;;;;;;;;;;;5049811;28;1695;-45
2023/07/02 11:52:47;;;;;;;;;;;;;;;;;;5049522;28;1807;-50
2023/07/02 11:55:14;;;;;;;;;;;;;;;;;;5050131;28;2162;-45
2023/07/02 11:57:41;;;;;;;;;;;;;;;;;;5050216;28;2022;-46
2023/07/02 12:00:08;;;;;;;;;;;;;;;;;;5050066;28;2013;-52
2023/07/02 12:02:36;;;;;;;;;;;;;;;;;;5052030;28;2070;-58
2023/07/02 12:05:03;;;;;;;;;;;;;;;;;;5049390;28;2214;-58
2023/07/02 12:07:32;;;;;;;;;;;;;;;;;;5048908;28;2122;-58
2023/07/02 12:09:59;;;;;;;;;;;;;;;;;;5049444;28;2066;-56
2023/07/02 12:12:26;;;;;;;;;;;;;;;;;;5049226;28;2240;-58
2023/07/02 12:14:53;;;;;;;;;;;;;;;;;;5048292;28;2132;-54
2023/07/02 12:17:20;;;;;;;;;;;;;;;;;;5047860;28;2045;-58
2023/07/02 12:19:48;;;;;;;;;;;;;;;;;;5050197;28;2036;-59
2023/07/02 12:22:17;;;;;;;;;;;;;;;;;;5049684;28;2545;-57
2023/07/02 12:24:44;;;;;;;;;;;;;;;;;;5049748;28;1745;-47
2023/07/02 12:27:12;;;;;;;;;;;;;;;;;;5047948;28;1935;-58
2023/07/02 12:29:39;;;;;;;;;;;;;;;;;;5058364;28;2073;-57
2023/07/02 12:32:06;;;;;;;;;;;;;;;;;;5049355;28;1893;-46
2023/07/02 12:34:33;;;;;;;;;;;;;;;;;;5009849;28;1850;-48
2023/07/02 12:37:01;;;;;;;;;;;;;;;;;;5008406;28;1962;-47
2023/07/02 12:39:28;;;;;;;;;;;;;;;;;;5006501;28;2305;-48
2023/07/02 12:41:55;;;;;;;;;;;;;;;;;;5007473;28;2268;-46
2023/07/02 12:44:22;;;;;;;;;;;;;;;;;;5007364;28;2209;-46
2023/07/02 12:46:49;;;;;;;;;;;;;;;;;;5009600;28;1952;-47
2023/07/02 12:49:17;;;;;;;;;;;;;;;;;;5007009;28;2015;-58
2023/07/02 12:51:44;;;;;;;;;;;;;;;;;;5005470;28;2218;-50
2023/07/02 12:54:11;;;;;;;;;;;;;;;;;;5007024;28;2014;-57
2023/07/02 12:56:38;;;;;;;;;;;;;;;;;;5007106;28;2081;-46
2023/07/02 12:59:05;;;;;;;;;;;;;;;;;;5002224;28;1920;-48
2023/07/02 13:01:33;;;;;;;;;;;;;;;;;;5004751;28;2036;-59
2023/07/02 13:04:00;;;;;;;;;;;;;;;;;;5004124;28;1936;-57
2023/07/02 13:06:28;;;;;;;;;;;;;;;;;;5007403;28;1764;-54
2023/07/02 13:08:57;;;;;;;;;;;;;;;;;;5006149;28;2064;-51
2023/07/02 13:11:25;;;;;;;;;;;;;;;;;;5008543;28;1895;-58
2023/07/02 13:13:52;;;;;;;;;;;;;;;;;;5009055;28;1894;-58
2023/07/02 13:16:20;;;;;;;;;;;;;;;;;;5007811;28;2061;-54
2023/07/02 13:18:48;;;;;;;;;;;;;;;;;;5006002;28;2190;-58
2023/07/02 13:21:15;;;;;;;;;;;;;;;;;;4999761;28;1951;-51
2023/07/02 13:23:46;;;;;;;;;;;;;;;;;;5004767;28;2078;-47
2023/07/02 13:26:13;;;;;;;;;;;;;;;;;;5006770;28;2087;-49
2023/07/02 13:28:41;;;;;;;;;;;;;;;;;;5006956;28;2007;-58
2023/07/02 13:31:10;;;;;;;;;;;;;;;;;;5008653;28;2140;-58
2023/07/02 13:33:39;;;;;;;;;;;;;;;;;;5033721;28;2166;-53
2023/07/02 13:36:09;;;;;;;;;;;;;;;;;;5047981;28;2089;-58
2023/07/02 13:38:42;;;;;;;;;;;;;;;;;;5048397;28;1922;-58
2023/07/02 13:41:16;;;;;;;;;;;;;;;;;;5048370;28;1883;-56
2023/07/02 13:43:48;;;;;;;;;;;;;;;;;;5048568;28;2313;-57
2023/07/02 13:46:18;;;;;;;;;;;;;;;;;;5046587;28;2287;-58
2023/07/02 13:48:45;;;;;;;;;;;;;;;;;;5048002;28;2090;-53
2023/07/02 13:51:15;;;;;;;;;;;;;;;;;;5047679;28;2052;-57
2023/07/02 13:53:42;;;;;;;;;;;;;;;;;;5047844;28;1791;-50
2023/07/02 13:56:10;;;;;;;;;;;;;;;;;;5047348;28;2225;-58
2023/07/02 13:58:56;;;;;;;;;;;;;;;;;;5048513;28;1746;-57
2023/07/02 14:01:23;;;;;;;;;;;;;;;;;;5048033;28;1990;-55
2023/07/02 14:03:51;;;;;;;;;;;;;;;;;;5048181;28;1970;-55
2023/07/02 14:06:18;;;;;;;;;;;;;;;;;;5048218;28;2092;-58
2023/07/02 14:08:45;;;;;;;;;;;;;;;;;;5047894;28;1971;-57
2023/07/02 14:11:15;;;;;;;;;;;;;;;;;;5047447;28;1978;-46
2023/07/02 14:13:42;;;;;;;;;;;;;;;;;;5047908;28;2177;-58
2023/07/02 14:16:11;;;;;;;;;;;;;;;;;;5047673;28;2075;-58
2023/07/02 14:18:44;;;;;;;;;;;;;;;;;;5048054;28;2179;-58
2023/07/02 14:21:19;;;;;;;;;;;;;;;;;;5046279;28;1982;-59
2023/07/02 14:23:58;;;;;;;;;;;;;;;;;;5047554;28;1926;-53
2023/07/02 14:26:31;;;;;;;;;;;;;;;;;;5046664;28;1992;-57
2023/07/02 14:29:01;;;;;;;;;;;;;;;;;;5047274;28;2231;-53
2023/07/02 14:31:32;;;;;;;;;;;;;;;;;;5046912;28;2031;-59
2023/07/02 14:34:01;;;;;;;;;;;;;;;;;;5046578;28;2057;-54
2023/07/02 14:36:41;;;;;;;;;;;;;;;;;;5046453;28;1976;-52
2023/07/02 14:39:15;;;;;;;;;;;;;;;;;;5049224;28;2407;-59
2023/07/02 14:41:45;;;;;;;;;;;;;;;;;;5047404;28;2201;-58
2023/07/02 14:44:13;;;;;;;;;;;;;;;;;;5046588;28;2074;-58
2023/07/02 14:46:40;;;;;;;;;;;;;;;;;;5047793;28;2273;-58
2023/07/02 14:49:07;;;;;;;;;;;;;;;;;;5046956;28;2073;-58
2023/07/02 14:51:34;;;;;;;;;;;;;;;;;;5046959;28;2086;-56
2023/07/02 14:54:03;;;;;;;;;;;;;;;;;;5047576;28;2128;-58
2023/07/02 14:56:30;;;;;;;;;;;;;;;;;;5049981;28;2012;-58
2023/07/02 14:58:57;;;;;;;;;;;;;;;;;;5047326;28;1993;-58
2023/07/02 15:01:25;;;;;;;;;;;;;;;;;;5047866;28;2053;-58
2023/07/02 15:03:52;;;;;;;;;;;;;;;;;;5047485;28;2140;-58
2023/07/02 15:06:20;;;;;;;;;;;;;;;;;;5046704;28;2132;-45
2023/07/02 15:08:47;;;;;;;;;;;;;;;;;;5050093;28;2018;-45
2023/07/02 15:11:16;;;;;;;;;;;;;;;;;;5047146;28;2059;-46
2023/07/02 15:13:49;;;;;;;;;;;;;;;;;;5045967;28;2188;-49
2023/07/02 15:16:21;;;;;;;;;;;;;;;;;;5049255;28;2088;-48
2023/07/02 15:18:53;;;;;;;;;;;;;;;;;;5046549;28;1925;-50
2023/07/02 15:21:22;;;;;;;;;;;;;;;;;;5046969;28;2114;-49
2023/07/02 15:23:49;;;;;;;;;;;;;;;;;;5046827;28;1840;-48
2023/07/02 15:26:17;;;;;;;;;;;;;;;;;;5048806;28;2118;-48
2023/07/02 15:28:45;;;;;;;;;;;;;;;;;;5052468;28;2169;-50
2023/07/02 15:31:13;;;;;;;;;;;;;;;;;;5050987;28;2334;-46
2023/07/02 15:33:40;;;;;;;;;;;;;;;;;;5050562;28;2063;-47
2023/07/02 15:36:09;;;;;;;;;;;;;;;;;;5051824;28;2015;-45
2023/07/02 15:38:37;;;;;;;;;;;;;;;;;;5050310;28;2183;-47
2023/07/02 15:41:11;;;;;;;;;;;;;;;;;;5050580;28;2015;-46
2023/07/02 15:43:39;;;;;;;;;;;;;;;;;;5050048;28;2314;-45
2023/07/02 15:46:07;;;;;;;;;;;;;;;;;;5049402;28;1979;-47
2023/07/02 15:48:34;;;;;;;;;;;;;;;;;;5050058;28;2018;-49
2023/07/02 15:51:05;;;;;;;;;;;;;;;;;;5047763;28;1943;-47
2023/07/02 15:53:34;;;;;;;;;;;;;;;;;;5050084;28;1952;-45
2023/07/02 15:56:01;;;;;;;;;;;;;;;;;;5049614;28;2212;-52
2023/07/02 15:58:29;;;;;;;;;;;;;;;;;;5049889;28;2193;-57
2023/07/02 16:01:07;;;;;;;;;;;;;;;;;;5050107;28;2178;-58
2023/07/02 16:03:34;;;;;;;;;;;;;;;;;;5050113;28;2094;-58
2023/07/02 16:06:02;;;;;;;;;;;;;;;;;;5049400;28;2046;-55
2023/07/02 16:08:30;;;;;;;;;;;;;;;;;;5052634;28;2112;-58
2023/07/02 16:10:57;;;;;;;;;;;;;;;;;;5049918;28;2252;-57
2023/07/02 16:13:24;;;;;;;;;;;;;;;;;;5049577;28;2088;-48
2023/07/02 16:15:52;;;;;;;;;;;;;;;;;;5050382;28;1753;-52
2023/07/02 16:18:21;;;;;;;;;;;;;;;;;;5048604;28;2081;-47
2023/07/02 16:20:59;;;;;;;;;;;;;;;;;;5049607;28;2023;-47
2023/07/02 16:23:27;;;;;;;;;;;;;;;;;;5050322;28;2248;-50
2023/07/02 16:25:54;;;;;;;;;;;;;;;;;;5049178;28;2054;-58
2023/07/02 16:28:23;;;;;;;;;;;;;;;;;;5049021;28;2071;-51
2023/07/02 16:30:53;;;;;;;;;;;;;;;;;;5049526;28;2137;-46
2023/07/02 16:33:21;;;;;;;;;;;;;;;;;;5048608;28;1925;-46
2023/07/02 16:35:48;;;;;;;;;;;;;;;;;;5049381;28;2238;-49
2023/07/02 16:38:16;;;;;;;;;;;;;;;;;;5048281;28;1969;-46
2023/07/02 16:40:46;;;;;;;;;;;;;;;;;;5049023;28;1800;-47
2023/07/02 16:43:14;;;;;;;;;;;;;;;;;;5048575;28;1959;-45
2023/07/02 16:45:42;;;;;;;;;;;;;;;;;;5049136;28;1915;-51
2023/07/02 16:48:09;;;;;;;;;;;;;;;;;;5048981;28;2091;-46
2023/07/02 16:50:39;;;;;;;;;;;;;;;;;;5050745;28;1856;-45
2023/07/02 16:53:06;;;;;;;;;;;;;;;;;;5048599;28;2038;-49
2023/07/02 16:55:38;;;;;;;;;;;;;;;;;;5048029;28;2325;-48
2023/07/02 16:58:05;;;;;;;;;;;;;;;;;;5048479;28;2163;-47
2023/07/02 17:00:34;;;;;;;;;;;;;;;;;;5049338;28;2073;-46
2023/07/02 17:03:01;;;;;;;;;;;;;;;;;;5048958;28;1799;-49
2023/07/02 17:05:29;;;;;;;;;;;;;;;;;;5050639;28;2233;-46
2023/07/02 17:07:57;;;;;;;;;;;;;;;;;;5049378;28;2090;-45
2023/07/02 17:10:24;;;;;;;;;;;;;;;;;;5048492;28;2059;-48
2023/07/02 17:12:51;;;;;;;;;;;;;;;;;;5048569;28;1967;-47